VietnamFixed distance
Vietnam Mountain Marathon 70km
30 Nov2024
Distance
70km
Finishers
287217 men70 women
Winning time
9:18:44h
Median pace
3.61km/h
Pace distribution
287 finishers · 3.34–7.52 km/h · mean 3.88
Every finisher ran the same 70 km course, so these paces are directly comparable.
Histogram of finisher pace. 287 finishers ranged from 3.34 to 7.52 kilometres per hour, with a mean of 3.88 and a median of 3.61. The busiest band is 3.5 to 4.0 kilometres per hour, with 105 finishers.
Results
Ranks 201–250 of 287
| Rank | Runner | Time | Pace | Cat. | Placing |
|---|---|---|---|---|---|
| 201 | 20:09:42h | 3.47 | M23 | 152nd M · 53rd M23 | |
| 202 | Times Runners Club | 20:10:18h | 3.47 | M45 | 153rd M · 15th M45 |
| 203 | 20:10:39h | 3.47 | M35 | 154th M · 45th M35 | |
| 204 | Vietnam Ultra Trail | 20:10:44h | 3.47 | W23 | 50th F · 23rd W23 |
| 205 | Pmhr | 20:10:54h | 3.47 | W45 | 51st F · 5th W45 |
| 206 | Vietnam Ultra Trail | 20:11:28h | 3.47 | M45 | 155th M · 16th M45 |
| 207 | Vietnam Ultra Trail | 20:12:10h | 3.46 | M40 | 156th M · 32nd M40 |
| 208 | Vietnam Ultra Trail | 20:16:01h | 3.45 | M35 | 157th M · 46th M35 |
| 209 | Phong Khám ĐA Khoa Thà... | 20:18:12h | 3.45 | M40 | 158th M · 33rd M40 |
| 210 | VKL Runners | 20:18:25h | 3.45 | M40 | 159th M · 34th M40 |
| 211 | 20:18:38h | 3.45 | M40 | 160th M · 35th M40 | |
| 212 | Wekenrun | 20:19:53h | 3.44 | M35 | 161st M · 47th M35 |
| 213 | 20:21:09h | 3.44 | M23 | 162nd M · 54th M23 | |
| 214 | Vietnam Ultra Trail | 20:21:27h | 3.44 | M35 | 163rd M · 48th M35 |
| 215 | Vietnam Ultra Trail | 20:21:27h | 3.44 | M40 | 163rd M · 36th M40 |
| 216 | HAM Lon Trail - TAR | 20:22:19h | 3.44 | M45 | 165th M · 17th M45 |
| 217 | Vietnam Ultra Trail | 20:23:02h | 3.43 | M35 | 166th M · 49th M35 |
| 218 | Awesome Ultra | 20:24:44h | 3.43 | M35 | 167th M · 50th M35 |
| 219 | Vietnam Ultra Trail | 20:25:07h | 3.43 | M50 | 168th M · 6th M50 |
| 220 | 20:26:17h | 3.42 | W23 | 52nd F · 24th W23 | |
| 221 | LBR | 20:27:12h | 3.42 | M35 | 169th M · 51st M35 |
| 222 | Ecomrun | 20:27:48h | 3.42 | M45 | 170th M · 18th M45 |
| 223 | Thái Nguyên Runners | 20:28:29h | 3.42 | M23 | 171st M · 55th M23 |
| 224 | 20:28:47h | 3.42 | M35 | 172nd M · 52nd M35 | |
| 225 | Vietnam Ultra Trail | 20:29:22h | 3.42 | M23 | 173rd M · 56th M23 |
| 226 | 20:29:22h | 3.42 | M23 | 173rd M · 56th M23 | |
| 227 | 20:29:52h | 3.42 | W35 | 53rd F · 11th W35 | |
| 228 | 20:30:15h | 3.41 | W40 | 54th F · 12th W40 | |
| 229 | AN Bình City | 20:30:26h | 3.41 | M50 | 175th M · 7th M50 |
| 230 | 33 Runners | 20:30:48h | 3.41 | M23 | 176th M · 58th M23 |
| 231 | New Viet Running Club | 20:30:57h | 3.41 | M23 | 177th M · 59th M23 |
| 232 | Vietnam Ultra Trail | 20:31:04h | 3.41 | M45 | 178th M · 19th M45 |
| 233 | VKL Runners | 20:32:32h | 3.41 | W40 | 55th F · 13th W40 |
| 234 | MỸ ĐÌnh Runner | 20:33:23h | 3.40 | M23 | 179th M · 60th M23 |
| 235 | VKL Runners | 20:33:30h | 3.40 | W40 | 56th F · 14th W40 |
| 236 | 20:33:36h | 3.40 | M40 | 180th M · 37th M40 | |
| 237 | Pmhr | 20:34:01h | 3.40 | W23 | 57th F · 25th W23 |
| 238 | Vietnam Ultra Trail | 20:34:38h | 3.40 | M35 | 181st M · 53rd M35 |
| 239 | Vietnam Ultra Trail | 20:34:38h | 3.40 | M23 | 181st M · 61st M23 |
| 240 | VKL Runners | 20:34:53h | 3.40 | W23 | 58th F · 26th W23 |
| 241 | BA Con SÓI | 20:35:34h | 3.40 | M23 | 183rd M · 62nd M23 |
| 242 | 88Runner | 20:35:50h | 3.40 | M35 | 184th M · 54th M35 |
| 243 | 20:36:11h | 3.40 | W23 | 59th F · 27th W23 | |
| 244 | HẢI Phòng Runner (Hpr) | 20:36:17h | 3.40 | M23 | 185th M · 63rd M23 |
| 245 | 20:36:22h | 3.40 | M23 | 186th M · 64th M23 | |
| 246 | AN Sương Runner | 20:37:10h | 3.40 | M40 | 187th M · 38th M40 |
| 247 | Vietnam Ultra Trail | 20:37:38h | 3.39 | W45 | 60th F · 6th W45 |
| 248 | Thuỷ Nguyên Runner | 20:38:14h | 3.39 | M23 | 188th M · 65th M23 |
| 249 | 20:38:20h | 3.39 | M35 | 189th M · 55th M35 | |
| 250 | STS | 20:38:26h | 3.39 | M23 | 190th M · 66th M23 |
- 201152nd M · 53rd M23Time20:09:42hPace3.47Cat.M23
- 202Times Runners Club153rd M · 15th M45Time20:10:18hPace3.47Cat.M45
- 203154th M · 45th M35Time20:10:39hPace3.47Cat.M35
- 204Vietnam Ultra Trail50th F · 23rd W23Time20:10:44hPace3.47Cat.W23
- 205Pmhr51st F · 5th W45Time20:10:54hPace3.47Cat.W45
- 206Vietnam Ultra Trail155th M · 16th M45Time20:11:28hPace3.47Cat.M45
- 207Vietnam Ultra Trail156th M · 32nd M40Time20:12:10hPace3.46Cat.M40
- 208Vietnam Ultra Trail157th M · 46th M35Time20:16:01hPace3.45Cat.M35
- 209Phong Khám ĐA Khoa Thà...158th M · 33rd M40Time20:18:12hPace3.45Cat.M40
- 210VKL Runners159th M · 34th M40Time20:18:25hPace3.45Cat.M40
- 211160th M · 35th M40Time20:18:38hPace3.45Cat.M40
- 212Wekenrun161st M · 47th M35Time20:19:53hPace3.44Cat.M35
- 213162nd M · 54th M23Time20:21:09hPace3.44Cat.M23
- 214Vietnam Ultra Trail163rd M · 48th M35Time20:21:27hPace3.44Cat.M35
- 215Vietnam Ultra Trail163rd M · 36th M40Time20:21:27hPace3.44Cat.M40
- 216HAM Lon Trail - TAR165th M · 17th M45Time20:22:19hPace3.44Cat.M45
- 217Vietnam Ultra Trail166th M · 49th M35Time20:23:02hPace3.43Cat.M35
- 218Awesome Ultra167th M · 50th M35Time20:24:44hPace3.43Cat.M35
- 219Vietnam Ultra Trail168th M · 6th M50Time20:25:07hPace3.43Cat.M50
- 22052nd F · 24th W23Time20:26:17hPace3.42Cat.W23
- 221LBR169th M · 51st M35Time20:27:12hPace3.42Cat.M35
- 222Ecomrun170th M · 18th M45Time20:27:48hPace3.42Cat.M45
- 223Thái Nguyên Runners171st M · 55th M23Time20:28:29hPace3.42Cat.M23
- 224172nd M · 52nd M35Time20:28:47hPace3.42Cat.M35
- 225Vietnam Ultra Trail173rd M · 56th M23Time20:29:22hPace3.42Cat.M23
- 226173rd M · 56th M23Time20:29:22hPace3.42Cat.M23
- 22753rd F · 11th W35Time20:29:52hPace3.42Cat.W35
- 22854th F · 12th W40Time20:30:15hPace3.41Cat.W40
- 229AN Bình City175th M · 7th M50Time20:30:26hPace3.41Cat.M50
- 23033 Runners176th M · 58th M23Time20:30:48hPace3.41Cat.M23
- 231New Viet Running Club177th M · 59th M23Time20:30:57hPace3.41Cat.M23
- 232Vietnam Ultra Trail178th M · 19th M45Time20:31:04hPace3.41Cat.M45
- 233VKL Runners55th F · 13th W40Time20:32:32hPace3.41Cat.W40
- 234MỸ ĐÌnh Runner179th M · 60th M23Time20:33:23hPace3.40Cat.M23
- 235VKL Runners56th F · 14th W40Time20:33:30hPace3.40Cat.W40
- 236180th M · 37th M40Time20:33:36hPace3.40Cat.M40
- 237Pmhr57th F · 25th W23Time20:34:01hPace3.40Cat.W23
- 238Vietnam Ultra Trail181st M · 53rd M35Time20:34:38hPace3.40Cat.M35
- 239Vietnam Ultra Trail181st M · 61st M23Time20:34:38hPace3.40Cat.M23
- 240VKL Runners58th F · 26th W23Time20:34:53hPace3.40Cat.W23
- 241BA Con SÓI183rd M · 62nd M23Time20:35:34hPace3.40Cat.M23
- 24288Runner184th M · 54th M35Time20:35:50hPace3.40Cat.M35
- 24359th F · 27th W23Time20:36:11hPace3.40Cat.W23
- 244HẢI Phòng Runner (Hpr)185th M · 63rd M23Time20:36:17hPace3.40Cat.M23
- 245186th M · 64th M23Time20:36:22hPace3.40Cat.M23
- 246AN Sương Runner187th M · 38th M40Time20:37:10hPace3.40Cat.M40
- 247Vietnam Ultra Trail60th F · 6th W45Time20:37:38hPace3.39Cat.W45
- 248Thuỷ Nguyên Runner188th M · 65th M23Time20:38:14hPace3.39Cat.M23
- 249189th M · 55th M35Time20:38:20hPace3.39Cat.M35
- 250STS190th M · 66th M23Time20:38:26hPace3.39Cat.M23
Showing ranks 201–250 of 287